createdAt,value
2022-10-19T00:00:52.486Z,98777.13
2022-10-19T00:03:33.652Z,98776.28
2022-10-19T00:06:02.304Z,98781.13
2022-10-19T00:08:31.444Z,98772.41
2022-10-19T00:11:01.982Z,98783.53
2022-10-19T00:13:29.842Z,98781.28
2022-10-19T00:15:57.824Z,98774.53
2022-10-19T00:18:25.690Z,98774.41
2022-10-19T00:20:53.933Z,98777.13
2022-10-19T00:23:22.842Z,98782.41
2022-10-19T00:25:58.714Z,98777.47
2022-10-19T00:28:26.849Z,98776.53
2022-10-19T00:30:55.133Z,98771.19
2022-10-19T00:33:23.376Z,98771.88
2022-10-19T00:35:53.117Z,98771.59
2022-10-19T00:38:22.082Z,98772.53
2022-10-19T00:40:50.569Z,98769.81
2022-10-19T00:43:22.594Z,98777.50
2022-10-19T00:45:50.866Z,98778.94
2022-10-19T00:48:22.145Z,98772.25
2022-10-19T00:50:52.181Z,98777.19
2022-10-19T00:53:20.153Z,98771.06
2022-10-19T00:55:48.334Z,98768.94
2022-10-19T00:58:16.247Z,98765.38
2022-10-19T01:00:45.966Z,98762.16
2022-10-19T01:03:14.980Z,98754.44
2022-10-19T01:05:43.712Z,98760.09
2022-10-19T01:08:12.759Z,98755.31
2022-10-19T01:10:52.432Z,98750.19
2022-10-19T01:13:35.078Z,98749.16
2022-10-19T01:16:12.424Z,98755.56
2022-10-19T01:18:46.680Z,98744.66
2022-10-19T01:21:22.089Z,98737.81
2022-10-19T01:24:25.092Z,98733.25
2022-10-19T01:27:16.912Z,98735.06
2022-10-19T01:30:17.332Z,98730.19
2022-10-19T01:33:05.373Z,98732.59
2022-10-19T01:35:39.254Z,98721.81
2022-10-19T01:38:17.549Z,98728.72
2022-10-19T01:40:54.996Z,98720.03
2022-10-19T01:43:33.934Z,98714.38
2022-10-19T01:46:10.132Z,98710.38
2022-10-19T01:48:41.830Z,98712.63
2022-10-19T01:51:14.790Z,98709.56
2022-10-19T01:53:53.484Z,98702.53
2022-10-19T01:56:25.599Z,98710.94
2022-10-19T01:58:55.928Z,98715.56
2022-10-19T02:01:28.493Z,98725.06
2022-10-19T02:03:58.168Z,98714.84
2022-10-19T02:06:26.416Z,98721.22
2022-10-19T02:08:55.628Z,98727.81
2022-10-19T02:11:24.450Z,98722.81
2022-10-19T02:13:57.701Z,98725.56
2022-10-19T02:16:31.672Z,98718.63
2022-10-19T02:19:01.798Z,98719.41
2022-10-19T02:21:29.753Z,98724.72
2022-10-19T02:23:57.612Z,98719.88
2022-10-19T02:26:25.536Z,98721.94
2022-10-19T02:28:55.713Z,98721.56
2022-10-19T02:31:24.288Z,98715.16
2022-10-19T02:33:54.281Z,98725.28
2022-10-19T02:36:22.348Z,98714.38
2022-10-19T02:38:50.409Z,98708.84
2022-10-19T02:41:22.966Z,98707.78
2022-10-19T02:43:57.636Z,98706.44
2022-10-19T02:46:31.202Z,98701.00
2022-10-19T02:49:02.512Z,98697.44
2022-10-19T02:51:32.892Z,98692.00
2022-10-19T02:54:04.184Z,98698.78
2022-10-19T02:56:33.890Z,98694.06
2022-10-19T02:59:02.128Z,98685.47
2022-10-19T03:01:30.012Z,98691.47
2022-10-19T03:03:58.141Z,98684.81
2022-10-19T03:06:27.257Z,98687.94
2022-10-19T03:08:55.351Z,98694.25
2022-10-19T03:11:23.322Z,98693.59
2022-10-19T03:13:51.228Z,98694.38
2022-10-19T03:16:19.039Z,98696.81
2022-10-19T03:18:49.155Z,98695.84
2022-10-19T03:21:17.293Z,98694.59
2022-10-19T03:23:46.534Z,98684.72
2022-10-19T03:26:16.266Z,98682.00
2022-10-19T03:28:44.531Z,98693.03
2022-10-19T03:31:12.485Z,98685.06
2022-10-19T03:33:40.654Z,98693.03
2022-10-19T03:36:20.771Z,98691.00
2022-10-19T03:38:51.245Z,98690.53
2022-10-19T03:41:19.328Z,98687.22
2022-10-19T03:43:47.647Z,98691.78
2022-10-19T03:46:16.165Z,98683.59
2022-10-19T03:48:45.036Z,98685.69
2022-10-19T03:51:14.553Z,98671.34
2022-10-19T03:53:43.550Z,98678.69
2022-10-19T03:56:16.019Z,98676.81
2022-10-19T03:58:46.078Z,98683.59
2022-10-19T04:01:16.789Z,98675.63
2022-10-19T04:03:45.099Z,98675.63
2022-10-19T04:06:18.247Z,98674.41
2022-10-19T04:08:50.118Z,98674.06
2022-10-19T04:11:22.004Z,98665.25
2022-10-19T04:13:50.721Z,98669.84
2022-10-19T04:16:19.145Z,98671.41
2022-10-19T04:18:47.317Z,98664.97
2022-10-19T04:21:22.881Z,98664.06
2022-10-19T04:23:52.623Z,98666.31
2022-10-19T04:26:21.890Z,98670.63
2022-10-19T04:28:50.129Z,98668.56
2022-10-19T04:31:18.273Z,98666.72
2022-10-19T04:36:19.460Z,98674.69
2022-10-19T04:38:47.423Z,98672.63
2022-10-19T04:41:17.046Z,98678.56
2022-10-19T04:43:46.708Z,98679.22
2022-10-19T04:46:16.603Z,98674.22
2022-10-19T04:48:45.357Z,98665.78
2022-10-19T04:51:14.324Z,98667.63
2022-10-19T04:53:43.316Z,98669.25
2022-10-19T04:56:14.425Z,98654.00
2022-10-19T04:58:43.097Z,98669.91
2022-10-19T05:01:14.263Z,98666.81
2022-10-19T05:03:42.318Z,98667.84
2022-10-19T05:06:10.551Z,98668.06
2022-10-19T05:08:39.038Z,98664.16
2022-10-19T05:11:08.294Z,98637.56
2022-10-19T05:13:37.838Z,98671.91
2022-10-19T05:16:07.398Z,98667.38
2022-10-19T05:18:36.671Z,98663.50
2022-10-19T05:21:06.367Z,98668.78
2022-10-19T05:23:34.871Z,98671.03
2022-10-19T05:26:04.733Z,98665.91
2022-10-19T05:28:33.419Z,98671.91
2022-10-19T05:31:12.240Z,98673.88
2022-10-19T05:33:42.697Z,98667.94
2022-10-19T05:36:15.609Z,98675.75
2022-10-19T05:38:44.127Z,98667.25
2022-10-19T05:41:12.217Z,98666.19
2022-10-19T05:43:41.166Z,98668.44
2022-10-19T05:46:11.872Z,98667.63
2022-10-19T05:48:41.926Z,98673.16
2022-10-19T05:51:12.593Z,98672.00
2022-10-19T05:53:40.904Z,98677.59
2022-10-19T05:56:12.355Z,98680.53
2022-10-19T05:58:40.331Z,98689.31
2022-10-19T06:01:09.317Z,98683.09
2022-10-19T06:03:37.485Z,98698.88
2022-10-19T06:06:08.334Z,98698.34
2022-10-19T06:08:37.514Z,98699.13
2022-10-19T06:11:07.440Z,98699.94
2022-10-19T06:13:35.891Z,98699.13
2022-10-19T06:16:04.339Z,98706.06
2022-10-19T06:18:32.404Z,98718.84
2022-10-19T06:21:03.818Z,98722.28
2022-10-19T06:23:33.881Z,98726.94
2022-10-19T06:26:03.953Z,98731.47
2022-10-19T06:28:31.938Z,98715.41
2022-10-19T06:31:00.478Z,98713.19
2022-10-19T06:33:29.923Z,98701.06
2022-10-19T06:35:57.894Z,98727.28
2022-10-19T06:38:25.934Z,98730.63
2022-10-19T06:40:59.314Z,98727.44
2022-10-19T06:43:28.180Z,98721.75
2022-10-19T06:45:56.409Z,98729.19
2022-10-19T06:48:24.922Z,98734.63
2022-10-19T06:50:57.605Z,98731.34
2022-10-19T06:53:25.714Z,98734.63
2022-10-19T06:55:54.792Z,98733.16
2022-10-19T06:58:22.776Z,98740.53
2022-10-19T07:00:57.035Z,98741.38
2022-10-19T07:03:25.869Z,98739.16
2022-10-19T07:05:54.777Z,98746.28
2022-10-19T07:08:22.935Z,98753.91
2022-10-19T07:10:51.804Z,98751.81
2022-10-19T07:13:21.584Z,98745.50
2022-10-19T07:15:49.645Z,98749.78
2022-10-19T07:18:17.675Z,98751.22
2022-10-19T07:20:55.018Z,98752.84
2022-10-19T07:23:23.201Z,98751.38
2022-10-19T07:25:52.621Z,98746.84
2022-10-19T07:28:22.700Z,98751.03
2022-10-19T07:30:50.524Z,98754.69
2022-10-19T07:33:18.489Z,98756.97
2022-10-19T07:35:46.326Z,98757.22
2022-10-19T07:38:14.477Z,98754.97
2022-10-19T07:40:44.917Z,98754.19
2022-10-19T07:43:15.422Z,98762.47
2022-10-19T07:45:44.485Z,98760.06
2022-10-19T07:48:12.416Z,98768.78
2022-10-19T07:50:40.338Z,98765.38
2022-10-19T07:53:08.474Z,98762.53
2022-10-19T07:55:36.175Z,98759.06
2022-10-19T07:58:04.220Z,98764.81
2022-10-19T08:00:32.036Z,98763.88
2022-10-19T08:03:31.550Z,98757.69
2022-10-19T08:05:49.404Z,98759.41
2022-10-19T08:08:17.372Z,98746.41
2022-10-19T08:10:45.070Z,98753.88
2022-10-19T08:13:13.217Z,98751.31
2022-10-19T08:15:40.920Z,98748.97
2022-10-19T08:18:11.401Z,98758.25
2022-10-19T08:20:42.029Z,98753.63
2022-10-19T08:23:10.100Z,98755.38
2022-10-19T08:25:38.167Z,98748.56
2022-10-19T08:28:06.350Z,98744.91
2022-10-19T08:30:35.213Z,98747.91
2022-10-19T08:33:04.418Z,98749.34
2022-10-19T08:35:33.812Z,98750.84
2022-10-19T08:38:02.905Z,98744.41
2022-10-19T08:40:32.120Z,98749.41
2022-10-19T08:43:06.253Z,98751.47
2022-10-19T08:45:43.031Z,98749.84
2022-10-19T08:48:25.253Z,98748.94
2022-10-19T08:50:55.563Z,98746.16
2022-10-19T08:53:32.749Z,98747.34
2022-10-19T08:56:14.989Z,98757.34
2022-10-19T08:58:58.953Z,98743.50
2022-10-19T09:01:37.743Z,98753.13
2022-10-19T09:04:12.159Z,98745.50
2022-10-19T09:06:49.816Z,98754.25
2022-10-19T09:09:21.444Z,98738.38
2022-10-19T09:11:52.019Z,98744.69
2022-10-19T09:14:26.893Z,98750.00
2022-10-19T09:16:57.718Z,98748.56
2022-10-19T09:19:30.807Z,98743.41
2022-10-19T09:22:05.233Z,98745.63
2022-10-19T09:24:42.851Z,98742.91
2022-10-19T09:27:20.952Z,98755.56
2022-10-19T09:29:52.124Z,98748.19
2022-10-19T09:32:25.373Z,98739.44
2022-10-19T09:34:56.121Z,98733.03
2022-10-19T09:37:26.775Z,98755.81
2022-10-19T09:39:56.050Z,98754.19
2022-10-19T09:42:29.311Z,98759.50
2022-10-19T09:44:59.403Z,98736.94
2022-10-19T09:47:35.808Z,98755.69
2022-10-19T09:50:15.064Z,98738.47
2022-10-19T09:52:45.564Z,98759.19
2022-10-19T09:55:27.701Z,98748.94
2022-10-19T09:58:07.790Z,98753.78
2022-10-19T10:00:39.763Z,98756.00
2022-10-19T10:03:08.709Z,98763.72
2022-10-19T10:05:38.679Z,98762.38
2022-10-19T10:08:15.446Z,98766.19
2022-10-19T10:10:46.343Z,98752.78
2022-10-19T10:13:18.826Z,98749.25
2022-10-19T10:15:56.489Z,98757.72
2022-10-19T10:18:26.378Z,98757.69
2022-10-19T10:21:01.041Z,98756.69
2022-10-19T10:23:36.069Z,98750.41
2022-10-19T10:26:05.743Z,98752.50
2022-10-19T10:28:33.570Z,98752.25
2022-10-19T10:31:04.297Z,98761.84
2022-10-19T10:33:47.620Z,98757.16
2022-10-19T10:36:15.800Z,98757.97
2022-10-19T10:38:48.182Z,98751.19
2022-10-19T10:41:18.740Z,98755.59
2022-10-19T10:43:58.449Z,98761.72
2022-10-19T10:46:33.602Z,98765.88
2022-10-19T10:49:05.137Z,98762.00
2022-10-19T10:51:38.609Z,98750.69
2022-10-19T10:54:27.027Z,98755.31
2022-10-19T10:57:13.960Z,98751.25
2022-10-19T10:59:50.672Z,98751.25
2022-10-19T11:02:36.542Z,98750.56
2022-10-19T11:05:11.718Z,98755.88
2022-10-19T11:07:43.947Z,98752.31
2022-10-19T11:10:17.713Z,98756.84
2022-10-19T11:12:51.199Z,98740.09
2022-10-19T11:15:23.676Z,98736.06
2022-10-19T11:18:07.474Z,98744.97
2022-10-19T11:20:41.140Z,98751.22
2022-10-19T11:23:17.040Z,98750.97
2022-10-19T11:26:02.109Z,98755.50
2022-10-19T11:28:48.114Z,98736.34
2022-10-19T11:31:21.853Z,98744.94
2022-10-19T11:34:00.276Z,98749.28
2022-10-19T11:36:46.926Z,98738.69
2022-10-19T11:39:34.538Z,98752.28
2022-10-19T11:42:12.770Z,98751.47
2022-10-19T11:44:56.059Z,98752.88
2022-10-19T11:47:35.168Z,98747.69
2022-10-19T11:50:15.666Z,98743.75
2022-10-19T11:52:51.877Z,98741.66
2022-10-19T11:55:34.210Z,98743.47
2022-10-19T11:58:18.726Z,98751.28
2022-10-19T12:00:51.092Z,98742.84
2022-10-19T12:03:27.980Z,98742.31
2022-10-19T12:06:08.057Z,98736.13
2022-10-19T12:08:51.241Z,98739.22
2022-10-19T12:11:31.531Z,98740.31
2022-10-19T12:14:06.056Z,98737.66
2022-10-19T12:16:39.062Z,98725.41
2022-10-19T12:19:13.828Z,98729.56
2022-10-19T12:21:44.174Z,98729.59
2022-10-19T12:24:15.480Z,98712.19
2022-10-19T12:26:46.021Z,98720.16
2022-10-19T12:29:18.591Z,98722.97
2022-10-19T12:31:47.944Z,98720.94
2022-10-19T12:34:27.659Z,98719.78
2022-10-19T12:36:59.966Z,98725.22
2022-10-19T12:39:35.617Z,98718.38
2022-10-19T12:42:13.578Z,98716.31
2022-10-19T12:45:16.808Z,98720.84
2022-10-19T12:48:32.877Z,98725.63
2022-10-19T12:51:04.042Z,98728.81
2022-10-19T12:53:36.349Z,98730.31
2022-10-19T12:56:06.773Z,98729.69
2022-10-19T12:58:44.970Z,98734.63
2022-10-19T13:01:21.042Z,98729.66
2022-10-19T13:03:51.646Z,98726.94
2022-10-19T13:06:33.044Z,98731.47
2022-10-19T13:09:04.459Z,98726.47
2022-10-19T13:11:32.893Z,98732.75
2022-10-19T13:14:04.801Z,98727.03
2022-10-19T13:16:58.003Z,98733.47
2022-10-19T13:19:26.637Z,98732.16
2022-10-19T13:22:03.926Z,98742.44
2022-10-19T13:24:37.975Z,98738.53
2022-10-19T13:27:29.013Z,98737.47
2022-10-19T13:29:57.174Z,98740.06
2022-10-19T13:32:42.854Z,98739.56
2022-10-19T13:35:33.695Z,98733.47
2022-10-19T13:38:20.952Z,98737.69
2022-10-19T13:41:03.362Z,98731.41
2022-10-19T13:43:33.531Z,98740.84
2022-10-19T13:46:09.017Z,98746.75
2022-10-19T13:49:05.689Z,98737.13
2022-10-19T13:51:44.138Z,98739.22
2022-10-19T13:54:28.918Z,98730.09
2022-10-19T13:57:12.827Z,98732.09
2022-10-19T14:00:00.242Z,98734.78
2022-10-19T14:02:51.473Z,98736.63
2022-10-19T14:05:32.217Z,98737.56
2022-10-19T14:08:10.801Z,98738.53
2022-10-19T14:13:27.188Z,98736.63
2022-10-19T14:15:57.075Z,98732.34
2022-10-19T14:18:27.129Z,98725.94
2022-10-19T14:21:01.332Z,98731.06
2022-10-19T14:23:30.902Z,98729.03
2022-10-19T14:26:01.550Z,98726.78
2022-10-19T14:28:30.185Z,98731.94
2022-10-19T14:31:01.541Z,98729.50
2022-10-19T14:33:33.196Z,98731.25
2022-10-19T14:36:02.712Z,98731.13
2022-10-19T14:38:35.107Z,98729.84
2022-10-19T14:41:03.049Z,98732.38
2022-10-19T14:43:32.866Z,98734.16
2022-10-19T14:46:14.570Z,98726.19
2022-10-19T14:48:45.973Z,98734.81
2022-10-19T14:51:29.403Z,98740.25
2022-10-19T14:54:01.849Z,98734.81
2022-10-19T14:56:33.660Z,98724.56
2022-10-19T14:59:04.678Z,98727.47
2022-10-19T15:01:32.500Z,98724.13
2022-10-19T15:04:00.593Z,98727.81
2022-10-19T15:06:33.043Z,98701.56
2022-10-19T15:09:03.792Z,98716.13
2022-10-19T15:11:38.205Z,98722.06
2022-10-19T15:14:10.659Z,98731.81
2022-10-19T15:16:45.295Z,98730.41
2022-10-19T15:19:19.427Z,98737.75
2022-10-19T15:21:48.929Z,98731.69
2022-10-19T15:24:25.992Z,98732.34
2022-10-19T15:27:08.799Z,98735.06
2022-10-19T15:29:37.845Z,98738.25
2022-10-19T15:32:17.087Z,98737.78
2022-10-19T15:34:46.483Z,98738.41
2022-10-19T15:37:21.120Z,98743.25
2022-10-19T15:39:49.635Z,98748.03
2022-10-19T15:42:39.819Z,98750.75
2022-10-19T15:45:33.131Z,98753.81
2022-10-19T15:48:26.447Z,98753.66
2022-10-19T15:50:55.673Z,98754.75
2022-10-19T15:53:26.269Z,98752.03
2022-10-19T15:55:54.322Z,98754.44
2022-10-19T15:58:22.179Z,98763.09
2022-10-19T16:00:50.386Z,98766.94
2022-10-19T16:03:18.141Z,98773.66
2022-10-19T16:05:47.095Z,98770.00
2022-10-19T16:08:15.228Z,98772.38
2022-10-19T16:10:44.467Z,98767.59
2022-10-19T16:13:12.214Z,98773.66
2022-10-19T16:15:40.332Z,98778.78
2022-10-19T16:18:08.043Z,98778.44
2022-10-19T16:20:36.198Z,98780.56
2022-10-19T16:23:04.144Z,98787.75
2022-10-19T16:25:32.067Z,98783.59
2022-10-19T16:28:01.304Z,98782.13
2022-10-19T16:30:29.180Z,98793.97
2022-10-19T16:32:57.029Z,98800.22
2022-10-19T16:35:25.353Z,98804.22
2022-10-19T16:37:53.040Z,98810.47
2022-10-19T16:40:20.996Z,98817.50
2022-10-19T16:42:48.879Z,98803.44
2022-10-19T16:45:18.438Z,98801.50
2022-10-19T16:47:50.421Z,98791.75
2022-10-19T16:50:18.703Z,98792.53
2022-10-19T16:52:46.586Z,98794.78
2022-10-19T16:55:14.524Z,98804.72
2022-10-19T16:57:42.895Z,98810.47
2022-10-19T17:00:11.805Z,98816.69
2022-10-19T17:02:43.183Z,98822.94
2022-10-19T17:05:14.129Z,98814.16
2022-10-19T17:07:41.968Z,98824.53
2022-10-19T17:10:10.747Z,98825.03
2022-10-19T17:12:40.997Z,98825.03
2022-10-19T17:15:40.824Z,98822.63
2022-10-19T17:18:00.291Z,98821.47
2022-10-19T17:20:28.225Z,98837.50
2022-10-19T17:22:55.959Z,98840.84
2022-10-19T17:25:24.125Z,98823.91
2022-10-19T17:27:51.998Z,98829.59
2022-10-19T17:30:20.129Z,98838.13
2022-10-19T17:32:48.090Z,98839.88
2022-10-19T17:35:17.373Z,98841.78
2022-10-19T17:37:45.109Z,98844.97
2022-10-19T17:40:13.649Z,98843.38
2022-10-19T17:42:41.706Z,98843.69
2022-10-19T17:45:10.396Z,98843.06
2022-10-19T17:47:38.492Z,98844.66
2022-10-19T17:50:07.240Z,98848.50
2022-10-19T17:52:36.329Z,98847.72
2022-10-19T17:55:12.098Z,98856.19
2022-10-19T17:57:40.173Z,98859.53
2022-10-19T18:00:09.050Z,98857.75
2022-10-19T18:02:36.819Z,98861.72
2022-10-19T18:05:05.349Z,98863.50
2022-10-19T18:07:33.862Z,98870.88
2022-10-19T18:10:03.279Z,98866.66
2022-10-19T18:12:30.976Z,98865.22
2022-10-19T18:14:58.962Z,98872.25
2022-10-19T18:17:27.774Z,98875.28
2022-10-19T18:19:55.905Z,98876.41
2022-10-19T18:22:23.893Z,98875.28
2022-10-19T18:24:51.732Z,98874.31
2022-10-19T18:27:20.818Z,98877.28
2022-10-19T18:29:49.141Z,98882.03
2022-10-19T18:32:16.908Z,98881.03
2022-10-19T18:34:45.090Z,98882.19
2022-10-19T18:37:13.144Z,98882.09
2022-10-19T18:39:41.204Z,98895.22
2022-10-19T18:42:12.047Z,98894.72
2022-10-19T18:44:41.455Z,98896.31
2022-10-19T18:47:09.179Z,98893.25
2022-10-19T18:49:37.245Z,98899.31
2022-10-19T18:52:05.294Z,98900.56
2022-10-19T18:54:33.189Z,98904.38
2022-10-19T18:57:01.052Z,98908.19
2022-10-19T18:59:29.207Z,98909.69
2022-10-19T19:01:58.353Z,98910.09
2022-10-19T19:04:26.292Z,98916.47
2022-10-19T19:06:54.173Z,98907.69
2022-10-19T19:09:22.269Z,98907.19
2022-10-19T19:11:51.488Z,98907.19
2022-10-19T19:14:21.834Z,98907.81
2022-10-19T19:16:49.637Z,98915.66
2022-10-19T19:19:20.198Z,98913.25
2022-10-19T19:21:48.937Z,98919.13
2022-10-19T19:24:18.844Z,98919.41
2022-10-19T19:26:50.003Z,98924.97
2022-10-19T19:29:18.835Z,98932.81
2022-10-19T19:31:47.133Z,98932.13
2022-10-19T19:34:15.332Z,98934.94
2022-10-19T19:36:47.943Z,98938.78
2022-10-19T19:39:18.603Z,98942.09
2022-10-19T19:41:46.717Z,98938.53
2022-10-19T19:44:14.585Z,98941.22
2022-10-19T19:46:42.453Z,98940.59
2022-10-19T19:49:10.588Z,98938.22
2022-10-19T19:51:38.419Z,98939.31
2022-10-19T19:54:07.881Z,98944.16
2022-10-19T19:56:37.200Z,98943.75
2022-10-19T19:59:05.249Z,98944.38
2022-10-19T20:01:34.039Z,98943.06
2022-10-19T20:06:37.520Z,98958.66
2022-10-19T20:09:07.402Z,98965.19
2022-10-19T20:11:38.362Z,98960.78
2022-10-19T20:14:09.206Z,98958.66
2022-10-19T20:16:37.089Z,98960.66
2022-10-19T20:19:07.610Z,98951.91
2022-10-19T20:21:35.527Z,98964.84
2022-10-19T20:24:03.963Z,98956.81
2022-10-19T20:26:33.455Z,98939.16
2022-10-19T20:29:02.595Z,98964.97
2022-10-19T20:31:31.261Z,98967.34
2022-10-19T20:33:59.195Z,98967.44
2022-10-19T20:36:27.752Z,98961.25
2022-10-19T20:38:57.969Z,98965.84
2022-10-19T20:41:27.592Z,98978.28
2022-10-19T20:43:57.942Z,98968.44
2022-10-19T20:46:27.814Z,98970.06
2022-10-19T20:48:56.928Z,98969.06
2022-10-19T20:51:30.758Z,98973.06
2022-10-19T20:54:01.386Z,98970.03
2022-10-19T20:56:32.071Z,98969.94
2022-10-19T21:01:37.371Z,98972.78
2022-10-19T21:04:07.504Z,98976.00
2022-10-19T21:06:38.425Z,98975.44
2022-10-19T21:09:07.462Z,98973.97
2022-10-19T21:11:37.009Z,98976.81
2022-10-19T21:14:08.486Z,98987.66
2022-10-19T21:16:37.658Z,98983.81
2022-10-19T21:19:08.902Z,98982.78
2022-10-19T21:21:41.828Z,98984.69
2022-10-19T21:24:13.454Z,98982.41
2022-10-19T21:26:42.095Z,98985.41
2022-10-19T21:29:12.819Z,98981.31
2022-10-19T21:31:45.223Z,98983.53
2022-10-19T21:34:17.810Z,98982.28
2022-10-19T21:36:45.851Z,98986.28
2022-10-19T21:39:13.809Z,98984.81
2022-10-19T21:41:41.896Z,98983.75
2022-10-19T21:44:11.607Z,98979.47
2022-10-19T21:46:39.385Z,98977.16
2022-10-19T21:49:07.265Z,98978.88
2022-10-19T21:51:38.345Z,98975.44
2022-10-19T21:54:08.146Z,98981.44
2022-10-19T21:56:36.149Z,98974.50
2022-10-19T21:59:04.403Z,98964.31
2022-10-19T22:01:38.514Z,98967.75
2022-10-19T22:04:12.525Z,98976.75
2022-10-19T22:06:40.540Z,98977.25
2022-10-19T22:09:10.559Z,98978.00
2022-10-19T22:11:38.670Z,98985.53
2022-10-19T22:14:06.722Z,98981.44
2022-10-19T22:16:36.786Z,98981.38
2022-10-19T22:19:06.009Z,98985.16
2022-10-19T22:21:34.986Z,98988.47
2022-10-19T22:24:05.214Z,98979.31
2022-10-19T22:26:34.958Z,98983.41
2022-10-19T22:29:05.246Z,98988.03
2022-10-19T22:31:34.045Z,98970.25
2022-10-19T22:34:05.898Z,98977.41
2022-10-19T22:36:33.650Z,98984.66
2022-10-19T22:39:01.746Z,98980.34
2022-10-19T22:41:29.821Z,98979.31
2022-10-19T22:43:57.846Z,98981.00
2022-10-19T22:46:25.920Z,98986.84
2022-10-19T22:48:54.207Z,98984.06
2022-10-19T22:51:23.604Z,98983.06
2022-10-19T22:53:51.687Z,98983.31
2022-10-19T22:56:19.678Z,98982.00
2022-10-19T22:58:47.845Z,98981.00
2022-10-19T23:01:16.779Z,98988.03
2022-10-19T23:03:45.156Z,98990.94
2022-10-19T23:06:16.177Z,98996.06
2022-10-19T23:08:45.885Z,98981.34
2022-10-19T23:11:14.087Z,98990.19
2022-10-19T23:13:42.446Z,98987.78
2022-10-19T23:16:11.044Z,99001.63
2022-10-19T23:18:41.987Z,99004.59
2022-10-19T23:21:12.692Z,98990.78
2022-10-19T23:23:41.937Z,98994.59
2022-10-19T23:26:13.284Z,99001.16
2022-10-19T23:28:43.526Z,98997.47
2022-10-19T23:31:13.425Z,99007.56
2022-10-19T23:33:42.823Z,99007.59
2022-10-19T23:36:14.243Z,99011.28
2022-10-19T23:38:43.657Z,99023.97
2022-10-19T23:41:14.068Z,99019.13
2022-10-19T23:43:42.129Z,99026.06
2022-10-19T23:46:10.337Z,99023.97
2022-10-19T23:48:38.918Z,99021.81
2022-10-19T23:51:08.566Z,99018.09
2022-10-19T23:53:40.887Z,99022.44
2022-10-19T23:56:11.571Z,99027.66
2022-10-19T23:58:41.559Z,99020.84
